createdAt,value
2023-04-29T00:00:32.145Z,11.20
2023-04-29T00:05:33.793Z,10.90
2023-04-29T00:10:35.453Z,11.70
2023-04-29T00:15:37.554Z,10.00
2023-04-29T00:20:39.570Z,11.50
2023-04-29T00:25:41.063Z,11.90
2023-04-29T00:30:42.589Z,9.30
2023-04-29T00:35:44.164Z,9.30
2023-04-29T00:40:46.036Z,10.10
2023-04-29T00:45:47.793Z,8.50
2023-04-29T00:50:50.803Z,11.30
2023-04-29T00:55:52.678Z,9.20
2023-04-29T01:00:56.540Z,10.80
2023-04-29T01:11:39.906Z,8.40
2023-04-29T01:16:47.656Z,10.40
2023-04-29T01:21:49.526Z,12.60
2023-04-29T01:27:09.446Z,11.80
2023-04-29T01:32:17.567Z,9.30
2023-04-29T01:37:43.168Z,11.60
2023-04-29T01:42:47.140Z,10.00
2023-04-29T01:47:53.003Z,10.70
2023-04-29T01:52:54.637Z,10.30
2023-04-29T01:57:56.136Z,8.10
2023-04-29T02:02:57.925Z,10.60
2023-04-29T02:08:00.915Z,10.00
2023-04-29T02:13:02.806Z,8.60
2023-04-29T02:18:04.321Z,9.20
2023-04-29T02:23:05.963Z,7.60
2023-04-29T02:28:07.544Z,12.20
2023-04-29T02:33:09.165Z,8.20
2023-04-29T02:38:12.106Z,10.40
2023-04-29T02:43:13.839Z,9.60
2023-04-29T02:48:15.975Z,11.00
2023-04-29T02:53:17.567Z,9.20
2023-04-29T02:58:19.121Z,10.90
2023-04-29T03:03:20.837Z,10.50
2023-04-29T03:08:22.518Z,10.50
2023-04-29T03:13:24.099Z,6.40
2023-04-29T03:18:25.624Z,6.40
2023-04-29T03:23:28.041Z,6.70
2023-04-29T03:28:29.519Z,6.50
2023-04-29T03:33:31.132Z,9.40
2023-04-29T03:38:32.589Z,7.60
2023-04-29T03:43:34.328Z,7.60
2023-04-29T03:48:36.887Z,7.80
2023-04-29T03:53:39.066Z,7.90
2023-04-29T03:58:40.636Z,8.40
2023-04-29T04:03:43.505Z,11.80
2023-04-29T04:08:45.097Z,11.40
2023-04-29T04:13:46.624Z,7.50
2023-04-29T04:18:48.152Z,8.40
2023-04-29T04:23:49.674Z,6.90
2023-04-29T04:28:51.162Z,8.10
2023-04-29T04:33:52.701Z,7.80
2023-04-29T04:38:54.213Z,8.20
2023-04-29T04:43:55.729Z,9.30
2023-04-29T04:48:57.236Z,7.80
2023-04-29T04:53:58.710Z,7.90
2023-04-29T04:59:00.223Z,8.60
2023-04-29T05:04:02.969Z,8.40
2023-04-29T05:09:05.459Z,8.70
2023-04-29T05:14:07.055Z,5.70
2023-04-29T05:19:09.680Z,7.00
2023-04-29T05:24:11.535Z,6.60
2023-04-29T05:29:13.464Z,7.00
2023-04-29T05:34:15.131Z,7.00
2023-04-29T05:39:17.642Z,6.40
2023-04-29T05:44:19.141Z,7.50
2023-04-29T05:49:20.766Z,7.20
2023-04-29T05:54:22.302Z,7.30
2023-04-29T05:59:23.857Z,7.20
2023-04-29T06:04:26.664Z,9.90
2023-04-29T06:09:28.657Z,6.30
2023-04-29T06:14:30.685Z,6.80
2023-04-29T06:19:33.654Z,5.60
2023-04-29T06:24:35.127Z,6.80
2023-04-29T06:29:36.689Z,5.80
2023-04-29T06:34:39.489Z,7.20
2023-04-29T06:39:41.156Z,5.80
2023-04-29T06:44:42.769Z,6.20
2023-04-29T06:49:44.246Z,6.80
2023-04-29T06:54:45.780Z,6.40
2023-04-29T06:59:47.310Z,5.00
2023-04-29T07:04:52.845Z,6.60
2023-04-29T07:09:55.124Z,6.90
2023-04-29T07:14:58.176Z,5.60
2023-04-29T07:19:59.987Z,5.40
2023-04-29T07:25:01.491Z,5.30
2023-04-29T07:30:04.812Z,6.50
2023-04-29T07:35:06.694Z,5.70
2023-04-29T07:40:09.116Z,5.40
2023-04-29T07:45:10.866Z,5.20
2023-04-29T07:50:12.754Z,5.00
2023-04-29T07:55:14.282Z,4.70
2023-04-29T08:00:22.329Z,4.90
2023-04-29T08:05:24.775Z,5.60
2023-04-29T08:10:27.333Z,7.00
2023-04-29T08:15:29.868Z,5.30
2023-04-29T08:20:31.440Z,4.80
2023-04-29T08:25:33.332Z,5.20
2023-04-29T08:30:45.314Z,4.60
2023-04-29T08:35:46.856Z,5.10
2023-04-29T08:40:48.380Z,5.10
2023-04-29T08:45:50.348Z,4.80
2023-04-29T08:50:52.126Z,4.90
2023-04-29T08:55:55.331Z,4.20
2023-04-29T09:00:57.279Z,4.70
2023-04-29T09:06:04.163Z,5.20
2023-04-29T09:11:10.533Z,4.50
2023-04-29T09:16:13.271Z,5.70
2023-04-29T09:21:16.129Z,5.40
2023-04-29T09:26:18.065Z,4.80
2023-04-29T09:31:28.310Z,4.40
2023-04-29T09:36:50.994Z,4.40
2023-04-29T09:41:52.433Z,4.40
2023-04-29T09:46:57.512Z,5.80
2023-04-29T09:52:01.960Z,4.90
2023-04-29T09:57:07.273Z,4.50
2023-04-29T10:02:19.062Z,4.50
2023-04-29T10:07:21.600Z,5.30
2023-04-29T10:12:26.581Z,4.60
2023-04-29T10:17:41.543Z,5.30
2023-04-29T10:22:50.190Z,4.80
2023-04-29T10:27:54.844Z,4.10
2023-04-29T10:33:01.723Z,3.80
2023-04-29T10:38:13.821Z,4.50
2023-04-29T10:43:16.175Z,4.40
2023-04-29T10:48:21.028Z,4.30
2023-04-29T10:53:22.546Z,4.60
2023-04-29T10:58:47.249Z,4.80
2023-04-29T11:04:05.056Z,4.40
2023-04-29T11:09:14.569Z,3.80
2023-04-29T11:14:22.658Z,4.60
2023-04-29T11:19:27.170Z,4.90
2023-04-29T11:24:29.043Z,4.20
2023-04-29T11:29:33.514Z,4.00
2023-04-29T11:34:34.988Z,4.00
2023-04-29T11:39:36.642Z,4.80
2023-04-29T11:44:40.146Z,4.50
2023-04-29T11:49:42.844Z,4.30
2023-04-29T11:59:47.264Z,3.80
2023-04-29T12:04:49.312Z,4.30
2023-04-29T12:09:51.603Z,5.30
2023-04-29T12:14:54.414Z,4.60
2023-04-29T12:19:57.279Z,5.00
2023-04-29T12:30:00.381Z,4.70
2023-04-29T12:35:01.882Z,4.30
2023-04-29T12:40:04.244Z,5.10
2023-04-29T12:45:06.980Z,5.20
2023-04-29T12:50:09.480Z,5.30
2023-04-29T12:55:11.489Z,4.50
2023-04-29T13:00:20.951Z,4.60
2023-04-29T13:05:22.851Z,4.40
2023-04-29T13:10:24.369Z,4.70
2023-04-29T13:15:26.866Z,4.50
2023-04-29T13:20:28.634Z,5.10
2023-04-29T13:25:30.122Z,5.50
2023-04-29T13:30:35.987Z,4.50
2023-04-29T13:35:38.458Z,5.40
2023-04-29T13:40:45.455Z,5.70
2023-04-29T13:45:48.614Z,5.50
2023-04-29T13:51:23.459Z,4.90
2023-04-29T14:01:44.063Z,5.90
2023-04-29T14:06:38.277Z,6.30
2023-04-29T14:11:39.803Z,5.60
2023-04-29T14:16:41.641Z,7.10
2023-04-29T14:21:43.357Z,7.40
2023-04-29T14:26:44.997Z,8.90
2023-04-29T14:31:46.667Z,8.30
2023-04-29T14:36:48.289Z,8.70
2023-04-29T14:41:49.759Z,11.60
2023-04-29T14:46:51.460Z,10.60
2023-04-29T14:51:53.006Z,11.30
2023-04-29T14:56:54.548Z,8.00
2023-04-29T15:01:58.776Z,5.90
2023-04-29T15:07:00.287Z,5.10
2023-04-29T15:12:02.303Z,6.30
2023-04-29T15:17:04.026Z,5.90
2023-04-29T15:22:05.571Z,4.50
2023-04-29T15:27:07.291Z,4.50
2023-04-29T15:32:10.642Z,4.40
2023-04-29T15:37:12.477Z,4.50
2023-04-29T15:42:14.010Z,4.10
2023-04-29T15:47:15.817Z,4.70
2023-04-29T15:52:17.634Z,4.80
2023-04-29T15:57:19.181Z,5.60
2023-04-29T16:02:21.278Z,5.30
2023-04-29T16:07:23.073Z,5.50
2023-04-29T16:12:24.960Z,5.30
2023-04-29T16:17:26.659Z,5.80
2023-04-29T16:22:28.303Z,6.90
2023-04-29T16:27:32.479Z,8.50
2023-04-29T16:32:34.633Z,7.20
2023-04-29T16:37:36.684Z,7.00
2023-04-29T16:42:38.189Z,7.60
2023-04-29T16:47:42.271Z,7.00
2023-04-29T16:52:43.795Z,7.50
2023-04-29T16:57:45.291Z,7.30
2023-04-29T17:02:50.486Z,7.60
2023-04-29T17:07:52.709Z,8.20
2023-04-29T17:12:54.763Z,10.60
2023-04-29T17:17:56.528Z,8.80
2023-04-29T17:22:58.030Z,9.20
2023-04-29T17:27:59.766Z,15.40
2023-04-29T17:33:06.023Z,14.70
2023-04-29T17:38:08.011Z,13.30
2023-04-29T17:43:09.635Z,14.80
2023-04-29T17:48:11.374Z,25.20
2023-04-29T17:53:13.947Z,17.60
2023-04-29T17:58:15.437Z,13.10
2023-04-29T18:03:17.077Z,14.50
2023-04-29T18:08:18.757Z,15.20
2023-04-29T18:13:20.536Z,15.30
2023-04-29T18:18:22.044Z,20.00
2023-04-29T18:23:23.554Z,30.80
2023-04-29T18:28:25.899Z,23.90
2023-04-29T18:33:30.929Z,26.40
2023-04-29T18:38:32.762Z,24.30
2023-04-29T18:43:34.830Z,23.80
2023-04-29T18:48:38.407Z,31.50
2023-04-29T18:53:40.008Z,34.60
2023-04-29T18:58:41.856Z,35.10
2023-04-29T19:03:43.574Z,30.40
2023-04-29T19:08:45.110Z,29.40
2023-04-29T19:13:46.684Z,18.20
2023-04-29T19:18:48.228Z,21.00
2023-04-29T19:23:49.737Z,18.70
2023-04-29T19:28:51.227Z,15.60
2023-04-29T19:33:52.718Z,17.50
2023-04-29T19:38:54.295Z,16.80
2023-04-29T19:43:56.021Z,16.90
2023-04-29T19:48:57.624Z,15.20
2023-04-29T19:54:01.735Z,14.00
2023-04-29T19:59:03.225Z,13.70
2023-04-29T20:04:05.883Z,10.50
2023-04-29T20:09:09.380Z,10.80
2023-04-29T20:14:11.092Z,18.30
2023-04-29T20:19:12.616Z,10.40
2023-04-29T20:24:14.146Z,10.80
2023-04-29T20:29:15.919Z,11.80
2023-04-29T20:34:17.650Z,11.10
2023-04-29T20:39:19.858Z,13.20
2023-04-29T20:44:21.348Z,16.80
2023-04-29T20:49:22.962Z,16.30
2023-04-29T20:54:24.488Z,15.40
2023-04-29T20:59:26.403Z,15.70
2023-04-29T21:04:28.164Z,16.20
2023-04-29T21:09:30.080Z,15.70
2023-04-29T21:14:35.133Z,15.70
2023-04-29T21:19:37.726Z,15.70
2023-04-29T21:24:39.329Z,16.20
2023-04-29T21:29:41.091Z,15.50
2023-04-29T21:34:42.658Z,16.10
2023-04-29T21:39:44.139Z,16.70
2023-04-29T21:44:45.682Z,15.20
2023-04-29T21:49:47.812Z,17.20
2023-04-29T21:54:49.354Z,17.30
2023-04-29T21:59:51.200Z,18.90
2023-04-29T22:04:53.762Z,21.70
2023-04-29T22:09:55.456Z,19.50
2023-04-29T22:14:57.294Z,17.90
2023-04-29T22:19:58.784Z,20.90
2023-04-29T22:25:00.420Z,17.10
2023-04-29T22:30:03.176Z,20.20
2023-04-29T22:35:05.815Z,16.20
2023-04-29T22:40:08.266Z,18.30
2023-04-29T22:45:12.115Z,16.90
2023-04-29T22:50:13.762Z,14.00
2023-04-29T22:55:15.417Z,14.20
2023-04-29T23:00:17.369Z,17.30
2023-04-29T23:05:18.869Z,16.00
2023-04-29T23:10:20.504Z,16.20
2023-04-29T23:15:21.979Z,16.90
2023-04-29T23:20:24.109Z,18.30
2023-04-29T23:25:25.895Z,26.80
2023-04-29T23:30:27.384Z,26.90
2023-04-29T23:35:28.854Z,21.80
2023-04-29T23:40:31.779Z,21.60
2023-04-29T23:45:33.415Z,21.30
2023-04-29T23:50:34.989Z,23.70
2023-04-29T23:55:36.503Z,19.90
